Time;durP1;ratioP1;P1;durP2;ratioP2;P2;SDS_P1;SDS_P2;PMS_P1;PMS_P2;Temp;Humidity;BMP_temperature;BMP_pressure;BME280_temperature;BME280_humidity;BME280_pressure;Samples;Min_cycle;Max_cycle;Signal;HPM_P1;HPM_P2
2023/10/09 00:01:33;;;;;;;10.43;8.20;;;;;22.00;100934.00;;;;2578208;23;20791;-58
2023/10/09 00:02:34;;;;;;;11.63;8.77;;;;;22.00;100929.00;;;;2563941;23;20224;-58
2023/10/09 00:03:36;;;;;;;9.60;7.90;;;;;22.00;100929.00;;;;2577879;23;20196;-59
2023/10/09 00:04:44;;;;;;;10.02;7.85;;;;;22.00;100927.00;;;;2579016;23;20422;-58
2023/10/09 00:06:46;;;;;;;10.87;8.10;;;;;22.00;100944.00;;;;2578745;23;20790;-57
2023/10/09 00:07:46;;;;;;;11.70;8.93;;;;;22.00;100933.00;;;;2563145;23;20195;-57
2023/10/09 00:08:50;;;;;;;10.50;8.10;;;;;22.00;100926.00;;;;2577324;23;20204;-58
2023/10/09 00:09:50;;;;;;;10.38;7.72;;;;;22.00;100922.00;;;;2578067;23;20584;-56
2023/10/09 00:10:54;;;;;;;10.43;7.60;;;;;22.00;100932.00;;;;2578219;23;20219;-57
2023/10/09 00:11:57;;;;;;;11.50;7.60;;;;;22.00;100927.00;;;;2579047;23;20246;-57
2023/10/09 00:12:58;;;;;;;11.65;8.10;;;;;22.00;100924.00;;;;2566385;23;20201;-58
2023/10/09 00:13:58;;;;;;;12.10;8.30;;;;;22.00;100930.00;;;;2579195;23;20656;-58
2023/10/09 00:15:09;;;;;;;12.30;8.50;;;;;22.00;100926.00;;;;2579210;23;20198;-58
2023/10/09 00:16:14;;;;;;;11.90;8.07;;;;;22.00;100921.00;;;;2565719;23;20193;-58
2023/10/09 00:18:21;;;;;;;13.93;8.30;;;;;22.00;100917.00;;;;2577701;23;20188;-58
2023/10/09 00:19:32;;;;;;;9.57;7.03;;;;;22.00;100918.00;;;;2578081;23;20200;-58
2023/10/09 00:20:42;;;;;;;11.88;8.35;;;;;22.00;100922.00;;;;2564437;23;20243;-58
2023/10/09 00:21:46;;;;;;;11.20;7.47;;;;;22.00;100918.00;;;;2569893;23;20201;-58
2023/10/09 00:22:47;;;;;;;10.45;6.97;;;;;22.00;100919.00;;;;2563004;23;20208;-58
2023/10/09 00:23:59;;;;;;;10.27;8.43;;;;;22.00;100923.00;;;;2565297;23;20232;-56
2023/10/09 00:25:11;;;;;;;10.18;7.55;;;;;22.00;100921.00;;;;2567423;23;20683;-57
2023/10/09 00:26:12;;;;;;;14.57;7.88;;;;;22.00;100923.00;;;;2578828;23;20203;-59
2023/10/09 00:27:14;;;;;;;10.60;8.03;;;;;22.00;100917.00;;;;2563731;23;20607;-59
2023/10/09 00:28:15;;;;;;;8.77;7.22;;;;;22.00;100923.00;;;;2578192;23;20438;-59
2023/10/09 00:29:21;;;;;;;10.70;8.02;;;;;22.00;100915.00;;;;2577822;23;20262;-58
2023/10/09 00:30:29;;;;;;;10.02;8.05;;;;;22.00;100914.00;;;;2578821;23;20196;-58
2023/10/09 00:31:36;;;;;;;9.57;7.32;;;;;22.00;100906.00;;;;2579126;23;20192;-57
2023/10/09 00:32:37;;;;;;;10.85;8.02;;;;;22.00;100918.00;;;;2563725;23;20184;-57
2023/10/09 00:33:37;;;;;;;10.88;7.90;;;;;22.00;100918.00;;;;2577792;23;20601;-57
2023/10/09 00:34:39;;;;;;;11.60;7.73;;;;;22.00;100929.00;;;;2578471;23;20200;-58
2023/10/09 00:35:54;;;;;;;13.13;7.32;;;;;22.00;100918.00;;;;2578910;23;20188;-58
2023/10/09 00:36:55;;;;;;;9.70;6.75;;;;;22.00;100911.00;;;;2578285;23;20263;-58
2023/10/09 00:38:02;;;;;;;10.85;8.57;;;;;22.00;100952.00;;;;2564023;23;20192;-58
2023/10/09 00:39:17;;;;;;;7.07;6.38;;;;;22.00;100909.00;;;;2564283;23;20648;-58
2023/10/09 00:40:27;;;;;;;9.77;6.97;;;;;22.00;100904.00;;;;2570250;23;20195;-58
2023/10/09 00:41:29;;;;;;;10.75;7.20;;;;;22.00;100904.00;;;;2578613;23;20203;-59
2023/10/09 00:42:38;;;;;;;11.60;8.02;;;;;22.00;100911.00;;;;2563983;23;20204;-58
2023/10/09 00:43:38;;;;;;;10.43;8.15;;;;;22.00;100901.00;;;;2577670;23;20216;-57
2023/10/09 00:44:42;;;;;;;10.43;7.67;;;;;22.00;100905.00;;;;2565807;23;20189;-57
2023/10/09 00:45:44;;;;;;;10.15;7.70;;;;;22.00;100902.00;;;;2553595;23;20624;-57
2023/10/09 00:46:47;;;;;;;8.93;6.75;;;;;21.90;100894.00;;;;2566408;23;20189;-58
2023/10/09 00:47:48;;;;;;;11.82;7.90;;;;;22.00;100892.00;;;;2551265;23;20231;-57
2023/10/09 00:48:50;;;;;;;10.20;7.78;;;;;22.00;100893.00;;;;2553338;23;20197;-57
2023/10/09 00:50:20;;;;;;;9.32;6.70;;;;;22.00;100896.00;;;;2552875;23;20208;-58
2023/10/09 00:51:24;;;;;;;10.30;6.95;;;;;22.00;100897.00;;;;2571887;23;20266;-58
2023/10/09 00:52:32;;;;;;;9.40;7.13;;;;;22.00;100904.00;;;;2550310;23;20203;-58
2023/10/09 00:53:33;;;;;;;9.85;6.75;;;;;22.00;100902.00;;;;2527218;23;20217;-58
2023/10/09 00:54:41;;;;;;;8.30;6.72;;;;;22.00;100895.00;;;;2542184;23;20220;-58
2023/10/09 00:55:55;;;;;;;13.75;7.40;;;;;22.00;100898.00;;;;2543548;23;20251;-57
2023/10/09 00:57:06;;;;;;;10.85;7.50;;;;;21.90;100892.00;;;;2553502;23;20312;-58
2023/10/09 00:58:11;;;;;;;8.02;6.90;;;;;21.90;100900.00;;;;2562606;23;21124;-58
2023/10/09 00:59:15;;;;;;;9.35;6.85;;;;;22.00;100901.00;;;;2553182;23;20202;-58
2023/10/09 01:01:36;;;;;;;9.38;6.72;;;;;21.90;100888.00;;;;2568173;23;20602;-58
2023/10/09 01:02:41;;;;;;;8.35;6.88;;;;;22.00;100942.00;;;;2550227;23;20355;-58
2023/10/09 01:03:44;;;;;;;8.10;7.18;;;;;21.90;100878.00;;;;2554340;23;20189;-57
2023/10/09 01:04:45;;;;;;;10.10;6.78;;;;;21.90;100885.00;;;;2553007;23;20190;-57
2023/10/09 01:06:03;;;;;;;10.63;7.60;;;;;21.90;100871.00;;;;2566124;23;20188;-57
2023/10/09 01:07:37;;;;;;;8.45;6.45;;;;;21.90;100869.00;;;;2550070;23;20201;-57
2023/10/09 01:08:38;;;;;;;9.18;6.82;;;;;21.90;100863.00;;;;2567769;23;20634;-60
2023/10/09 01:09:42;;;;;;;10.90;7.43;;;;;21.90;100863.00;;;;2577987;23;20538;-58
2023/10/09 01:12:05;;;;;;;10.95;7.00;;;;;22.00;100863.00;;;;2549920;23;20201;-57
2023/10/09 01:13:09;;;;;;;8.80;6.40;;;;;22.00;100869.00;;;;2556143;23;20193;-57
2023/10/09 01:15:35;;;;;;;9.80;6.30;;;;;21.90;100868.00;;;;2578732;23;20611;-58
2023/10/09 01:16:31;;;;;;;9.15;6.53;;;;;21.90;100864.00;;;;2564937;23;20263;-60
2023/10/09 01:17:45;;;;;;;8.00;6.90;;;;;21.90;100872.00;;;;2542597;23;20192;-58
2023/10/09 01:18:49;;;;;;;9.05;6.85;;;;;21.90;100867.00;;;;2555800;23;20263;-57
2023/10/09 01:19:55;;;;;;;12.00;7.47;;;;;21.20;100864.00;;;;2568156;23;20986;-58
2023/10/09 01:20:55;;;;;;;7.90;6.35;;;;;22.00;100862.00;;;;2578012;23;20208;-57
2023/10/09 01:22:02;;;;;;;9.07;6.50;;;;;22.00;100870.00;;;;2577720;23;20196;-58
2023/10/09 01:23:03;;;;;;;10.40;7.15;;;;;22.00;100873.00;;;;2577103;23;20196;-57
2023/10/09 01:24:04;;;;;;;8.03;6.10;;;;;21.90;100876.00;;;;2564415;23;20193;-58
2023/10/09 01:25:05;;;;;;;8.40;6.60;;;;;21.90;100873.00;;;;2565610;23;20212;-57
2023/10/09 01:26:06;;;;;;;9.00;6.18;;;;;21.90;100874.00;;;;2578308;23;20199;-57
2023/10/09 01:27:14;;;;;;;7.80;6.50;;;;;21.90;100874.00;;;;2563623;23;20200;-58
2023/10/09 01:28:15;;;;;;;11.20;6.60;;;;;21.90;100866.00;;;;2578815;23;20196;-57
2023/10/09 01:29:18;;;;;;;7.83;7.00;;;;;21.90;100873.00;;;;2578218;23;20689;-57
2023/10/09 01:30:20;;;;;;;10.27;5.50;;;;;22.00;100866.00;;;;2563975;23;20810;-57
2023/10/09 01:31:20;;;;;;;7.28;5.88;;;;;22.00;100868.00;;;;2565557;23;20774;-57
2023/10/09 01:32:21;;;;;;;7.77;6.07;;;;;21.90;100860.00;;;;2563858;23;20206;-57
2023/10/09 01:33:26;;;;;;;7.70;6.50;;;;;21.90;100863.00;;;;2577136;23;20192;-57
2023/10/09 01:34:42;;;;;;;7.55;6.20;;;;;21.90;100871.00;;;;2578958;23;20988;-57
2023/10/09 01:35:48;;;;;;;9.10;6.90;;;;;21.90;100870.00;;;;2564699;23;20783;-58
2023/10/09 01:36:49;;;;;;;8.43;5.63;;;;;21.90;100873.00;;;;2568288;23;20239;-57
2023/10/09 01:37:51;;;;;;;7.20;6.07;;;;;21.90;100870.00;;;;2561372;23;20188;-58
2023/10/09 01:38:53;;;;;;;7.93;6.35;;;;;21.90;100869.00;;;;2578353;23;20206;-57
2023/10/09 01:40:00;;;;;;;8.30;6.30;;;;;21.90;100870.00;;;;2578389;23;20204;-58
2023/10/09 01:41:07;;;;;;;8.90;5.85;;;;;21.90;100869.00;;;;2578104;23;20196;-58
2023/10/09 01:42:09;;;;;;;9.63;6.47;;;;;21.90;100873.00;;;;2562606;23;20537;-58
2023/10/09 01:43:10;;;;;;;9.30;6.53;;;;;21.90;100873.00;;;;2577556;23;20200;-59
2023/10/09 01:44:11;;;;;;;8.50;6.23;;;;;21.90;100874.00;;;;2579065;23;20188;-58
2023/10/09 01:46:19;;;;;;;7.68;6.00;;;;;21.90;100880.00;;;;2542253;23;20681;-57
2023/10/09 01:47:21;;;;;;;7.82;5.97;;;;;21.90;100878.00;;;;2552061;23;20200;-58
2023/10/09 01:48:24;;;;;;;9.13;6.00;;;;;21.90;100876.00;;;;2565149;23;20534;-58
2023/10/09 01:49:31;;;;;;;8.88;5.70;;;;;21.90;100870.00;;;;2566054;23;20231;-58
2023/10/09 01:50:31;;;;;;;8.32;5.80;;;;;21.90;100870.00;;;;2564663;23;20682;-59
2023/10/09 01:51:34;;;;;;;7.40;5.67;;;;;21.90;100866.00;;;;2553211;23;22152;-60
2023/10/09 01:52:35;;;;;;;11.90;6.55;;;;;21.90;100866.00;;;;2549773;23;20185;-59
2023/10/09 01:53:38;;;;;;;8.07;6.63;;;;;21.90;100866.00;;;;2577915;23;20246;-58
2023/10/09 01:54:40;;;;;;;8.25;6.20;;;;;21.90;100868.00;;;;2578061;23;20202;-57
2023/10/09 01:55:42;;;;;;;7.15;5.80;;;;;21.90;100881.00;;;;2565657;23;20181;-58
2023/10/09 01:56:46;;;;;;;8.77;6.68;;;;;21.90;100886.00;;;;2566278;23;20651;-58
2023/10/09 01:57:47;;;;;;;9.38;6.28;;;;;21.90;100869.00;;;;2563653;23;20211;-58
2023/10/09 01:58:50;;;;;;;7.20;6.43;;;;;21.90;100890.00;;;;2578702;23;20199;-59
2023/10/09 01:59:53;;;;;;;8.73;6.03;;;;;21.90;100865.00;;;;2578011;23;20650;-58
2023/10/09 02:00:56;;;;;;;7.72;5.63;;;;;21.90;100902.00;;;;2578256;23;20254;-57
2023/10/09 02:01:58;;;;;;;9.48;6.40;;;;;21.90;100869.00;;;;2578341;23;20197;-57
2023/10/09 02:03:04;;;;;;;9.50;7.00;;;;;21.90;100878.00;;;;2559658;23;20231;-57
2023/10/09 02:04:11;;;;;;;10.15;6.18;;;;;21.90;100879.00;;;;2553771;23;20217;-58
2023/10/09 02:06:25;;;;;;;7.90;5.85;;;;;21.90;100874.00;;;;2567626;23;20251;-58
2023/10/09 02:07:30;;;;;;;8.90;6.60;;;;;21.90;100872.00;;;;2550158;23;20200;-58
2023/10/09 02:08:34;;;;;;;8.77;6.30;;;;;21.90;100870.00;;;;2556392;23;20640;-58
2023/10/09 02:09:44;;;;;;;9.57;6.55;;;;;21.90;100875.00;;;;2566335;23;20200;-58
2023/10/09 02:10:47;;;;;;;8.65;6.03;;;;;21.90;100883.00;;;;2561995;23;20196;-58
2023/10/09 02:11:48;;;;;;;8.95;5.90;;;;;21.90;100880.00;;;;2567627;23;20232;-58
2023/10/09 02:12:58;;;;;;;8.20;6.20;;;;;21.90;100879.00;;;;2563186;23;20196;-58
2023/10/09 02:13:59;;;;;;;7.68;6.03;;;;;21.90;100879.00;;;;2578157;23;20271;-58
2023/10/09 02:15:06;;;;;;;9.25;6.57;;;;;21.90;100870.00;;;;2578711;23;20208;-57
2023/10/09 02:16:15;;;;;;;9.10;5.88;;;;;21.90;100875.00;;;;2577906;23;20196;-58
2023/10/09 02:17:18;;;;;;;13.05;6.18;;;;;21.90;100868.00;;;;2563119;23;20189;-58
2023/10/09 02:19:30;;;;;;;7.35;5.93;;;;;21.90;100869.00;;;;2565135;23;20200;-57
2023/10/09 02:20:30;;;;;;;8.60;6.10;;;;;21.90;100864.00;;;;2554505;23;20193;-58
2023/10/09 02:21:34;;;;;;;8.17;6.50;;;;;21.90;100862.00;;;;2552170;23;20201;-58
2023/10/09 02:22:34;;;;;;;8.77;6.57;;;;;21.90;100869.00;;;;2539493;23;20213;-59
2023/10/09 02:25:45;;;;;;;8.77;6.40;;;;;21.90;100863.00;;;;2566616;23;20275;-58
2023/10/09 02:27:53;;;;;;;7.53;5.75;;;;;21.90;100846.00;;;;2563128;23;20275;-57
2023/10/09 02:29:04;;;;;;;7.22;5.78;;;;;21.90;100849.00;;;;2565558;23;20850;-58
2023/10/09 02:30:15;;;;;;;6.47;5.78;;;;;21.90;100855.00;;;;2567404;23;20275;-57
2023/10/09 02:31:16;;;;;;;7.00;5.93;;;;;21.90;100889.00;;;;2565058;23;20197;-58
2023/10/09 02:32:25;;;;;;;7.70;6.07;;;;;21.90;100854.00;;;;2553113;23;20572;-58
2023/10/09 02:33:28;;;;;;;6.43;5.50;;;;;21.90;100858.00;;;;2577494;23;20681;-59
2023/10/09 02:34:29;;;;;;;8.32;6.00;;;;;21.90;100858.00;;;;2577909;23;20192;-58
2023/10/09 02:35:42;;;;;;;8.10;5.43;;;;;21.90;100860.00;;;;2574652;23;20330;-58
2023/10/09 02:36:48;;;;;;;7.93;6.38;;;;;21.90;100854.00;;;;2578188;23;20246;-57
2023/10/09 02:37:48;;;;;;;9.45;5.55;;;;;21.90;100854.00;;;;2563144;23;20219;-58
2023/10/09 02:38:52;;;;;;;10.50;5.93;;;;;21.90;100860.00;;;;2578644;23;20587;-58
2023/10/09 02:39:53;;;;;;;9.20;6.65;;;;;21.90;100860.00;;;;2577709;23;20881;-57
2023/10/09 02:42:23;;;;;;;8.70;6.13;;;;;21.40;100864.00;;;;2563629;23;20266;-58
2023/10/09 02:43:25;;;;;;;7.75;5.38;;;;;21.90;100864.00;;;;2577795;23;20204;-58
2023/10/09 02:44:26;;;;;;;9.45;6.15;;;;;21.90;100856.00;;;;2578023;23;20685;-58
2023/10/09 02:45:34;;;;;;;8.40;6.07;;;;;21.80;100855.00;;;;2565341;23;20220;-59
2023/10/09 02:46:35;;;;;;;7.50;6.05;;;;;21.80;100856.00;;;;2566490;23;20926;-57
2023/10/09 02:47:39;;;;;;;7.90;6.20;;;;;21.90;100856.00;;;;2563159;23;20215;-58
2023/10/09 02:48:45;;;;;;;7.45;6.28;;;;;21.90;100860.00;;;;2578681;23;20211;-58
2023/10/09 02:49:48;;;;;;;11.43;6.10;;;;;21.90;100863.00;;;;2564721;23;20201;-57
2023/10/09 02:50:50;;;;;;;8.80;6.30;;;;;21.90;100863.00;;;;2566435;23;20237;-57
2023/10/09 02:51:53;;;;;;;7.70;6.70;;;;;21.90;100849.00;;;;2577761;23;20254;-58
2023/10/09 02:52:59;;;;;;;8.35;6.20;;;;;21.90;100843.00;;;;2562761;23;20238;-58
2023/10/09 02:55:08;;;;;;;8.35;5.97;;;;;21.90;100850.00;;;;2578229;23;20494;-57
2023/10/09 02:55:38;;;;;;;8.18;5.90;;;;;21.90;100854.00;;;;2538737;23;20583;-62
2023/10/09 02:56:47;;;;;;;9.40;5.65;;;;;21.90;100839.00;;;;2560029;23;20239;-58
2023/10/09 02:57:51;;;;;;;7.38;5.88;;;;;21.90;100839.00;;;;2553552;23;20212;-58
2023/10/09 02:58:51;;;;;;;8.88;6.40;;;;;21.90;100839.00;;;;2578039;23;20209;-59
2023/10/09 02:59:52;;;;;;;8.03;5.93;;;;;21.80;100844.00;;;;2577946;23;20255;-57
2023/10/09 03:00:52;;;;;;;8.23;5.87;;;;;21.80;100845.00;;;;2577823;23;20196;-58
2023/10/09 03:01:53;;;;;;;7.00;5.93;;;;;21.80;100844.00;;;;2578274;23;20327;-58
2023/10/09 03:02:53;;;;;;;8.10;6.60;;;;;21.90;100844.00;;;;2561811;23;20208;-59
2023/10/09 03:03:59;;;;;;;8.53;5.50;;;;;21.90;100848.00;;;;2577151;23;20266;-58
2023/10/09 03:04:59;;;;;;;7.43;6.00;;;;;21.80;100845.00;;;;2578712;23;20422;-58
2023/10/09 03:06:01;;;;;;;6.57;5.40;;;;;21.90;100844.00;;;;2577845;23;20199;-57
2023/10/09 03:07:03;;;;;;;7.95;5.63;;;;;21.90;100833.00;;;;2550137;23;20239;-58
2023/10/09 03:08:04;;;;;;;6.53;5.60;;;;;21.80;100833.00;;;;2564217;23;20197;-58
2023/10/09 03:09:16;;;;;;;9.10;6.00;;;;;21.90;100837.00;;;;2578418;23;20957;-58
2023/10/09 03:10:17;;;;;;;9.00;6.03;;;;;21.80;100837.00;;;;2577731;23;20426;-58
2023/10/09 03:11:18;;;;;;;7.70;5.50;;;;;21.80;100835.00;;;;2578260;23;20537;-58
2023/10/09 03:12:26;;;;;;;8.10;6.15;;;;;21.80;100834.00;;;;2563315;23;20438;-58
2023/10/09 03:13:28;;;;;;;6.68;5.47;;;;;21.90;100835.00;;;;2577435;23;20258;-57
2023/10/09 03:14:30;;;;;;;8.35;5.85;;;;;21.90;100850.00;;;;2578165;23;20204;-59
2023/10/09 03:15:35;;;;;;;9.13;6.35;;;;;21.90;100838.00;;;;2564370;23;20511;-58
2023/10/09 03:16:36;;;;;;;6.70;5.45;;;;;21.80;100825.00;;;;2566107;23;20196;-59
2023/10/09 03:17:36;;;;;;;7.73;6.33;;;;;21.80;100824.00;;;;2562876;23;20634;-57
2023/10/09 03:18:37;;;;;;;8.87;6.00;;;;;21.90;100829.00;;;;2578424;23;20565;-58
2023/10/09 03:19:37;;;;;;;8.73;6.37;;;;;21.80;100829.00;;;;2577509;23;20206;-57
2023/10/09 03:20:37;;;;;;;9.50;6.10;;;;;21.90;100826.00;;;;2552279;23;20205;-59
2023/10/09 03:21:38;;;;;;;6.87;6.07;;;;;21.80;100827.00;;;;2552237;23;20205;-57
2023/10/09 03:22:39;;;;;;;7.97;6.00;;;;;21.80;100849.00;;;;2562615;23;20228;-59
2023/10/09 03:23:39;;;;;;;9.83;6.63;;;;;21.80;100822.00;;;;2577763;23;20199;-57
2023/10/09 03:24:44;;;;;;;8.87;6.27;;;;;21.90;100833.00;;;;2578130;23;20427;-59
2023/10/09 03:25:45;;;;;;;9.48;6.20;;;;;21.80;100777.00;;;;2579392;23;20269;-58
2023/10/09 03:26:45;;;;;;;7.30;5.67;;;;;21.80;100830.00;;;;2578708;23;20570;-56
2023/10/09 03:27:46;;;;;;;7.00;6.10;;;;;21.80;100815.00;;;;2564275;23;20198;-58
2023/10/09 03:28:47;;;;;;;8.10;5.93;;;;;21.80;100823.00;;;;2553485;23;20197;-59
2023/10/09 03:29:49;;;;;;;7.60;6.00;;;;;21.80;100821.00;;;;2552587;23;20205;-57
2023/10/09 03:30:50;;;;;;;7.45;5.50;;;;;21.80;100814.00;;;;2565100;23;21167;-59
2023/10/09 03:31:51;;;;;;;8.13;6.17;;;;;21.80;100819.00;;;;2578538;23;20200;-59
2023/10/09 03:32:52;;;;;;;7.03;5.20;;;;;21.80;100811.00;;;;2537961;23;20599;-56
2023/10/09 03:33:52;;;;;;;11.77;5.77;;;;;21.80;100813.00;;;;2553324;23;20461;-59
2023/10/09 03:34:52;;;;;;;8.30;5.90;;;;;21.80;100816.00;;;;2565218;23;20212;-60
2023/10/09 03:35:53;;;;;;;9.30;6.93;;;;;21.80;100823.00;;;;2565555;23;20201;-59
2023/10/09 03:37:03;;;;;;;7.03;5.60;;;;;21.80;100818.00;;;;2577696;23;20654;-59
2023/10/09 03:38:12;;;;;;;7.35;5.82;;;;;21.80;100814.00;;;;2577933;23;20590;-57
2023/10/09 03:40:32;;;;;;;9.07;6.40;;;;;21.80;100813.00;;;;2579187;23;20267;-58
2023/10/09 03:41:32;;;;;;;8.93;5.88;;;;;21.80;100814.00;;;;2578311;23;20536;-56
2023/10/09 03:42:36;;;;;;;9.20;6.60;;;;;21.80;100796.00;;;;2564135;23;20198;-60
2023/10/09 03:43:40;;;;;;;8.55;6.38;;;;;21.80;100807.00;;;;2564033;23;20427;-57
2023/10/09 03:44:44;;;;;;;6.78;5.88;;;;;21.80;100782.00;;;;2555111;23;20190;-59
2023/10/09 03:45:54;;;;;;;9.23;6.13;;;;;21.80;100797.00;;;;2554371;23;20248;-58
2023/10/09 03:46:54;;;;;;;8.15;5.50;;;;;21.80;100796.00;;;;2568156;23;20251;-57
2023/10/09 03:48:08;;;;;;;10.10;6.13;;;;;21.80;100795.00;;;;2564049;23;20188;-58
2023/10/09 03:49:20;;;;;;;7.45;5.70;;;;;21.80;100797.00;;;;2565520;23;21036;-58
2023/10/09 03:50:26;;;;;;;7.57;5.50;;;;;21.80;100797.00;;;;2570898;23;20631;-58
2023/10/09 03:51:27;;;;;;;8.40;5.65;;;;;21.80;100785.00;;;;2578910;23;20634;-58
2023/10/09 03:52:30;;;;;;;8.97;6.47;;;;;21.80;100777.00;;;;2563620;23;20192;-57
2023/10/09 03:53:31;;;;;;;7.00;5.10;;;;;21.80;100771.00;;;;2564477;23;20416;-58
2023/10/09 03:54:32;;;;;;;6.83;5.83;;;;;21.80;100791.00;;;;2566465;23;20200;-59
2023/10/09 03:55:34;;;;;;;9.88;6.20;;;;;21.80;100799.00;;;;2578685;23;20192;-59
2023/10/09 03:56:34;;;;;;;7.30;5.70;;;;;21.80;100800.00;;;;2565405;23;20224;-60
2023/10/09 03:57:35;;;;;;;8.70;6.10;;;;;21.80;100789.00;;;;2550672;23;20519;-58
2023/10/09 03:58:35;;;;;;;8.23;6.03;;;;;21.80;100785.00;;;;2578652;23;20237;-58
2023/10/09 03:59:37;;;;;;;9.50;6.00;;;;;21.80;100791.00;;;;2578832;23;20195;-59
2023/10/09 04:00:48;;;;;;;9.05;5.82;;;;;21.80;100790.00;;;;2578401;23;20199;-57
2023/10/09 04:01:51;;;;;;;8.05;5.00;;;;;21.80;100789.00;;;;2565809;23;20759;-57
2023/10/09 04:02:52;;;;;;;9.32;6.60;;;;;21.80;100789.00;;;;2540149;23;20202;-57
2023/10/09 04:03:55;;;;;;;7.55;5.47;;;;;21.80;100794.00;;;;2566476;23;20216;-59
2023/10/09 04:04:56;;;;;;;10.25;5.82;;;;;21.80;100791.00;;;;2578525;23;20207;-58
2023/10/09 04:05:56;;;;;;;7.27;5.20;;;;;21.80;100793.00;;;;2579084;23;20666;-58
2023/10/09 04:06:56;;;;;;;8.40;5.70;;;;;21.80;100794.00;;;;2578394;23;20805;-57
2023/10/09 04:07:58;;;;;;;7.70;5.53;;;;;21.80;100791.00;;;;2563510;23;20639;-58
2023/10/09 04:09:26;;;;;;;7.68;5.93;;;;;21.80;100794.00;;;;2565829;23;20197;-59
2023/10/09 04:11:43;;;;;;;8.40;5.82;;;;;21.80;100793.00;;;;2570340;23;20200;-57
2023/10/09 04:12:43;;;;;;;8.10;5.60;;;;;21.30;100791.00;;;;2563576;23;20785;-58
2023/10/09 04:13:46;;;;;;;8.47;6.40;;;;;21.80;100789.00;;;;2578426;23;20192;-58
2023/10/09 04:14:57;;;;;;;8.85;6.05;;;;;21.80;100786.00;;;;2578590;23;20203;-59
2023/10/09 04:15:59;;;;;;;7.30;5.82;;;;;21.80;100792.00;;;;2565828;23;20196;-59
2023/10/09 04:17:06;;;;;;;9.98;5.70;;;;;21.80;100786.00;;;;2554169;23;20197;-59
2023/10/09 04:18:14;;;;;;;6.25;5.43;;;;;21.80;100788.00;;;;2554591;23;20189;-58
2023/10/09 04:19:15;;;;;;;8.13;6.25;;;;;21.80;100790.00;;;;2568286;23;20266;-58
2023/10/09 04:21:18;;;;;;;6.47;5.47;;;;;21.80;100782.00;;;;2578777;23;20199;-57
2023/10/09 04:22:31;;;;;;;5.93;5.13;;;;;21.80;100778.00;;;;2563346;23;20199;-58
2023/10/09 04:23:59;;;;;;;8.10;5.63;;;;;21.80;100786.00;;;;2563724;23;20208;-59
2023/10/09 04:24:57;;;;;;;8.15;6.25;;;;;21.80;100781.00;;;;2573561;23;20191;-58
2023/10/09 04:25:59;;;;;;;6.40;5.00;;;;;21.80;100782.00;;;;2578985;23;20192;-58
2023/10/09 04:27:02;;;;;;;7.30;5.18;;;;;21.80;100773.00;;;;2563672;23;20207;-59
2023/10/09 04:29:38;;;;;;;6.28;5.32;;;;;21.80;100773.00;;;;2553550;23;20193;-58
2023/10/09 04:30:42;;;;;;;6.13;5.30;;;;;21.80;100772.00;;;;2578521;23;20199;-58
2023/10/09 04:31:44;;;;;;;8.85;5.68;;;;;21.80;100766.00;;;;2565038;23;20713;-58
2023/10/09 04:32:45;;;;;;;9.48;5.93;;;;;21.80;100768.00;;;;2542576;23;20186;-58
2023/10/09 04:34:21;;;;;;;7.80;5.43;;;;;21.80;100766.00;;;;2563488;23;20193;-58
2023/10/09 04:36:22;;;;;;;8.07;5.60;;;;;21.80;100781.00;;;;2578723;23;20639;-58
2023/10/09 04:37:38;;;;;;;7.53;5.55;;;;;21.80;100778.00;;;;2563912;23;20211;-58
2023/10/09 04:38:38;;;;;;;8.88;5.82;;;;;21.80;100796.00;;;;2578075;23;20206;-58
2023/10/09 04:39:46;;;;;;;8.00;5.23;;;;;21.80;100775.00;;;;2578631;23;20650;-59
2023/10/09 04:42:58;;;;;;;6.93;5.10;;;;;21.80;100785.00;;;;2563250;23;20964;-57
2023/10/09 04:45:51;;;;;;;7.63;5.70;;;;;21.80;100776.00;;;;2578382;23;20200;-58
2023/10/09 04:47:18;;;;;;;7.60;5.40;;;;;21.80;100773.00;;;;2578332;23;20208;-57
2023/10/09 04:48:06;;;;;;;7.97;5.30;;;;;21.80;100781.00;;;;2563742;23;20189;-58
2023/10/09 04:49:27;;;;;;;7.13;5.30;;;;;21.80;100778.00;;;;2571389;23;20193;-58
2023/10/09 04:51:36;;;;;;;6.63;4.85;;;;;21.80;100777.00;;;;2578847;23;20220;-58
2023/10/09 04:53:47;;;;;;;7.13;5.55;;;;;21.80;100777.00;;;;2564811;23;20368;-57
2023/10/09 04:56:15;;;;;;;8.05;5.60;;;;;21.80;100771.00;;;;2542712;23;20193;-58
2023/10/09 04:57:17;;;;;;;9.85;6.20;;;;;21.80;100762.00;;;;2556211;23;20220;-58
2023/10/09 04:58:25;;;;;;;6.70;5.50;;;;;21.80;100866.00;;;;2579079;23;20273;-57
2023/10/09 04:59:26;;;;;;;7.13;5.43;;;;;21.80;100773.00;;;;2578251;23;20251;-57
2023/10/09 05:01:35;;;;;;;8.20;6.00;;;;;21.80;100785.00;;;;2563423;23;20192;-58
2023/10/09 05:02:37;;;;;;;6.80;5.10;;;;;21.80;100776.00;;;;2551648;23;20211;-60
2023/10/09 05:04:41;;;;;;;8.13;4.80;;;;;21.80;100777.00;;;;2578736;23;20538;-57
2023/10/09 05:06:42;;;;;;;7.20;4.97;;;;;21.80;100786.00;;;;2578162;23;20199;-59
2023/10/09 05:07:54;;;;;;;9.27;5.43;;;;;21.80;100778.00;;;;2563949;23;20184;-57
2023/10/09 05:08:55;;;;;;;6.70;5.25;;;;;21.80;100777.00;;;;2565497;23;20201;-57
2023/10/09 05:09:55;;;;;;;7.83;5.20;;;;;21.80;100773.00;;;;2568128;23;20240;-58
2023/10/09 05:12:15;;;;;;;7.47;5.80;;;;;21.80;100812.00;;;;2563480;23;20196;-59
2023/10/09 05:13:27;;;;;;;7.50;5.40;;;;;21.80;100756.00;;;;2578172;23;20199;-59
2023/10/09 05:14:38;;;;;;;7.10;5.05;;;;;21.80;100758.00;;;;2578454;23;20207;-57
2023/10/09 05:15:45;;;;;;;8.40;5.85;;;;;21.80;100759.00;;;;2578623;23;20192;-57
2023/10/09 05:16:55;;;;;;;8.85;5.93;;;;;21.80;100758.00;;;;2578644;23;20842;-58
2023/10/09 05:18:09;;;;;;;7.43;4.93;;;;;21.80;100758.00;;;;2563874;23;20196;-57
2023/10/09 05:19:28;;;;;;;5.97;4.85;;;;;21.80;100755.00;;;;2578049;23;20206;-58
2023/10/09 05:21:44;;;;;;;7.90;5.80;;;;;21.80;100750.00;;;;2578537;23;20250;-57
2023/10/09 05:22:56;;;;;;;7.00;5.32;;;;;21.80;100764.00;;;;2550536;23;20663;-58
2023/10/09 05:25:15;;;;;;;6.18;4.70;;;;;21.80;100770.00;;;;2561740;23;20197;-57
2023/10/09 05:26:50;;;;;;;7.97;5.18;;;;;21.80;100777.00;;;;2569211;23;20189;-57
2023/10/09 05:27:50;;;;;;;6.68;5.47;;;;;21.80;100794.00;;;;2561887;23;20188;-58
2023/10/09 05:28:52;;;;;;;7.03;5.15;;;;;21.80;100794.00;;;;2579037;23;20196;-59
2023/10/09 05:30:12;;;;;;;9.30;6.07;;;;;21.80;100797.00;;;;2578591;23;20200;-58
2023/10/09 05:31:44;;;;;;;7.93;5.10;;;;;21.80;100792.00;;;;2578604;23;20212;-58
2023/10/09 05:32:48;;;;;;;7.55;5.25;;;;;21.80;100797.00;;;;2562394;23;20188;-59
2023/10/09 05:33:52;;;;;;;7.93;5.68;;;;;21.80;100800.00;;;;2578060;23;20295;-57
2023/10/09 05:36:47;;;;;;;8.05;5.40;;;;;21.80;100824.00;;;;2578036;23;20227;-58
2023/10/09 05:37:33;;;;;;;8.85;5.60;;;;;21.80;100830.00;;;;2546531;23;20207;-59
2023/10/09 05:38:44;;;;;;;7.65;5.60;;;;;21.80;100821.00;;;;2565404;23;20193;-57
2023/10/09 05:39:58;;;;;;;7.55;5.28;;;;;21.80;100823.00;;;;2563552;23;20204;-58
2023/10/09 05:41:31;;;;;;;6.97;5.78;;;;;21.80;100824.00;;;;2553142;23;20263;-57
2023/10/09 05:42:18;;;;;;;8.85;5.00;;;;;21.80;100823.00;;;;2551236;23;20275;-58
2023/10/09 05:46:08;;;;;;;7.13;5.40;;;;;21.70;100821.00;;;;2578717;23;21045;-58
2023/10/09 05:55:20;;;;;;;7.75;4.80;;;;;21.70;100811.00;;;;2515972;23;20192;-58
2023/10/09 06:04:19;;;;;;;6.82;5.38;;;;;21.70;100843.00;;;;2572317;23;20192;-57
2023/10/09 06:05:40;;;;;;;6.85;5.75;;;;;21.70;100769.00;;;;2578768;23;20662;-58
2023/10/09 06:06:44;;;;;;;6.03;5.18;;;;;21.70;100853.00;;;;2564189;23;20200;-55
2023/10/09 06:08:04;;;;;;;6.55;5.63;;;;;21.70;100857.00;;;;2555829;23;20192;-58
2023/10/09 06:10:37;;;;;;;7.25;5.50;;;;;21.70;100836.00;;;;2565094;23;20192;-58
2023/10/09 06:13:46;;;;;;;7.85;5.38;;;;;21.70;100856.00;;;;2577322;23;20224;-57
2023/10/09 06:14:49;;;;;;;7.07;5.25;;;;;21.80;100865.00;;;;2578590;23;20227;-58
2023/10/09 06:18:25;;;;;;;7.55;4.70;;;;;21.70;100873.00;;;;2563851;23;20200;-58
2023/10/09 06:23:15;;;;;;;8.20;4.75;;;;;21.70;100876.00;;;;2550770;23;20205;-57
2023/10/09 06:24:16;;;;;;;8.93;5.65;;;;;21.80;100883.00;;;;2551979;23;20192;-57
2023/10/09 06:25:17;;;;;;;5.60;4.67;;;;;21.80;100883.00;;;;2551823;23;20217;-58
2023/10/09 06:26:24;;;;;;;9.57;4.78;;;;;21.70;100876.00;;;;2552497;23;20205;-58